Time;durP1;ratioP1;P1;durP2;ratioP2;P2;SDS_P1;SDS_P2;PMS_P1;PMS_P2;Temp;Humidity;BMP_temperature;BMP_pressure;BME280_temperature;BME280_humidity;BME280_pressure;Samples;Min_cycle;Max_cycle;Signal;HPM_P1;HPM_P2
2023/09/08 00:01:00;;;;;;;6.90;6.30;;;26.40;81.40;;;;;;4982481;28;20511;-72
2023/09/08 00:03:26;;;;;;;7.70;6.90;;;26.40;81.30;;;;;;4985420;28;20834;-72
2023/09/08 00:05:56;;;;;;;6.17;5.77;;;26.30;81.20;;;;;;4986100;28;20906;-72
2023/09/08 00:08:24;;;;;;;7.60;6.00;;;26.30;81.20;;;;;;4984660;28;20515;-72
2023/09/08 00:10:52;;;;;;;6.27;5.77;;;26.30;81.90;;;;;;4984720;28;20460;-72
2023/09/08 00:13:20;;;;;;;6.50;5.80;;;26.30;81.10;;;;;;4972333;28;20989;-72
2023/09/08 00:15:48;;;;;;;6.90;6.27;;;26.30;81.20;;;;;;4971045;28;20490;-72
2023/09/08 00:18:14;;;;;;;6.57;5.97;;;26.20;81.10;;;;;;4956748;28;21142;-72
2023/09/08 00:20:43;;;;;;;6.97;6.37;;;26.20;81.10;;;;;;4970665;28;20555;-72
2023/09/08 00:23:11;;;;;;;6.53;5.87;;;26.20;81.20;;;;;;4975399;28;20426;-72
2023/09/08 00:25:40;;;;;;;6.73;6.13;;;26.20;81.10;;;;;;4986949;28;20432;-72
2023/09/08 00:28:14;;;;;;;6.90;6.30;;;26.20;81.20;;;;;;4959854;28;20520;-72
2023/09/08 00:30:41;;;;;;;7.30;6.60;;;26.20;81.20;;;;;;4972554;28;20483;-72
2023/09/08 00:33:09;;;;;;;6.83;6.33;;;26.10;81.10;;;;;;4971968;28;20903;-72
2023/09/08 00:35:38;;;;;;;6.87;5.87;;;26.10;81.10;;;;;;4977945;28;20454;-72
2023/09/08 00:38:06;;;;;;;6.20;5.60;;;26.10;81.10;;;;;;4990267;28;20465;-72
2023/09/08 00:40:34;;;;;;;6.27;5.57;;;26.10;81.10;;;;;;4967597;28;21139;-72
2023/09/08 00:43:03;;;;;;;6.07;5.67;;;26.10;81.10;;;;;;4967092;28;20512;-72
2023/09/08 00:45:30;;;;;;;7.17;6.47;;;26.10;81.10;;;;;;4993091;28;20432;-72
2023/09/08 00:47:58;;;;;;;7.57;6.30;;;26.10;81.10;;;;;;4950778;28;20453;-72
2023/09/08 00:50:26;;;;;;;6.90;6.30;;;26.00;81.10;;;;;;4983059;28;20482;-72
2023/09/08 00:52:52;;;;;;;8.67;6.17;;;26.00;81.00;;;;;;4973618;28;20456;-72
2023/09/08 00:55:23;;;;;;;6.70;6.10;;;26.00;81.10;;;;;;4956514;28;20826;-72
2023/09/08 00:57:54;;;;;;;6.23;5.63;;;26.00;81.00;;;;;;4985736;28;20202;-72
2023/09/08 01:00:20;;;;;;;6.50;6.00;;;26.00;81.10;;;;;;4987865;28;20448;-72
2023/09/08 01:02:49;;;;;;;6.07;5.57;;;26.00;81.10;;;;;;4966995;28;20420;-72
2023/09/08 01:05:17;;;;;;;9.70;6.60;;;25.90;81.00;;;;;;4984591;28;21202;-72
2023/09/08 01:07:44;;;;;;;6.90;6.30;;;25.90;81.00;;;;;;4972681;28;20452;-72
2023/09/08 01:10:14;;;;;;;7.03;6.10;;;25.90;81.00;;;;;;4981138;28;20547;-72
2023/09/08 01:12:40;;;;;;;6.30;5.70;;;25.90;81.00;;;;;;4969769;28;21349;-72
2023/09/08 01:15:12;;;;;;;6.50;6.00;;;25.90;81.00;;;;;;4973816;28;20437;-71
2023/09/08 01:17:39;;;;;;;6.30;5.80;;;25.90;81.10;;;;;;4950243;28;20464;-72
2023/09/08 01:20:24;;;;;;;8.83;6.37;;;25.80;81.00;;;;;;4975221;28;20431;-72
2023/09/08 01:23:02;;;;;;;6.70;6.10;;;25.80;81.00;;;;;;4949505;28;20428;-72
2023/09/08 01:25:31;;;;;;;6.60;6.00;;;25.80;81.10;;;;;;4982537;28;20494;-72
2023/09/08 01:28:04;;;;;;;7.40;6.37;;;25.80;81.00;;;;;;4965944;28;20428;-72
2023/09/08 01:30:32;;;;;;;6.77;6.17;;;25.70;80.90;;;;;;4966728;28;20883;-73
2023/09/08 01:33:01;;;;;;;6.40;5.70;;;25.70;81.00;;;;;;4966663;28;20457;-72
2023/09/08 01:35:30;;;;;;;6.83;5.77;;;25.70;80.90;;;;;;4952169;28;20528;-72
2023/09/08 01:37:58;;;;;;;6.53;6.00;;;25.70;81.00;;;;;;4979034;28;21374;-71
2023/09/08 01:40:31;;;;;;;7.17;6.57;;;25.70;80.90;;;;;;4990259;28;20431;-72
2023/09/08 01:42:57;;;;;;;6.53;5.97;;;25.70;81.00;;;;;;4975082;28;20471;-72
2023/09/08 01:45:26;;;;;;;7.90;6.80;;;25.70;81.00;;;;;;4984064;28;20459;-72
2023/09/08 01:47:52;;;;;;;7.37;5.80;;;25.70;81.00;;;;;;4979832;28;20451;-72
2023/09/08 01:50:22;;;;;;;7.17;6.47;;;25.60;80.90;;;;;;4955821;28;20447;-72
2023/09/08 01:52:48;;;;;;;6.67;6.07;;;25.60;81.00;;;;;;4964548;28;20495;-72
2023/09/08 01:55:17;;;;;;;7.27;6.40;;;25.60;81.00;;;;;;4977895;28;20412;-72
2023/09/08 01:57:43;;;;;;;7.00;6.30;;;25.60;81.00;;;;;;4973014;28;20456;-72
2023/09/08 02:00:11;;;;;;;7.03;6.43;;;25.60;81.00;;;;;;4963830;28;20453;-72
2023/09/08 02:02:41;;;;;;;6.90;6.20;;;25.50;80.90;;;;;;4986356;28;21104;-72
2023/09/08 02:05:08;;;;;;;5.87;5.37;;;25.50;80.90;;;;;;4964104;28;21363;-72
2023/09/08 02:07:33;;;;;;;7.00;6.40;;;25.50;81.00;;;;;;4949087;28;20496;-72
2023/09/08 02:10:00;;;;;;;7.00;6.30;;;25.50;81.00;;;;;;4965412;28;20464;-71
2023/09/08 02:12:26;;;;;;;8.23;6.37;;;25.50;81.00;;;;;;4981533;28;20958;-72
2023/09/08 02:14:54;;;;;;;7.13;6.53;;;25.40;80.90;;;;;;4977235;28;20427;-72
2023/09/08 02:17:20;;;;;;;7.53;6.30;;;25.40;80.90;;;;;;4948467;28;20484;-72
2023/09/08 02:19:46;;;;;;;7.60;6.90;;;25.40;80.90;;;;;;4954279;28;20467;-72
2023/09/08 02:22:12;;;;;;;7.50;6.23;;;25.40;80.90;;;;;;4964993;28;20580;-72
2023/09/08 02:24:40;;;;;;;6.57;5.97;;;25.40;81.00;;;;;;4948794;28;20461;-72
2023/09/08 02:27:06;;;;;;;7.73;6.30;;;25.40;81.00;;;;;;4965198;28;20405;-72
2023/09/08 02:29:32;;;;;;;7.93;7.20;;;25.40;81.00;;;;;;4965048;28;20864;-71
2023/09/08 02:32:00;;;;;;;7.53;6.70;;;25.30;81.00;;;;;;4949568;28;20451;-72
2023/09/08 02:34:26;;;;;;;6.87;6.27;;;25.30;81.00;;;;;;4965290;28;20533;-72
2023/09/08 02:36:52;;;;;;;7.00;6.50;;;25.30;81.00;;;;;;4945615;28;20472;-71
2023/09/08 02:39:28;;;;;;;7.00;6.40;;;25.30;81.10;;;;;;4947056;28;20253;-72
2023/09/08 02:41:54;;;;;;;6.67;6.17;;;25.30;81.00;;;;;;5002850;28;20448;-72
2023/09/08 02:44:25;;;;;;;7.10;6.50;;;25.30;81.00;;;;;;4965263;28;20551;-72
2023/09/08 02:46:51;;;;;;;7.10;6.40;;;25.20;80.90;;;;;;4965174;28;20465;-72
2023/09/08 02:49:20;;;;;;;6.30;5.80;;;25.20;80.90;;;;;;4949430;28;20999;-72
2023/09/08 02:51:49;;;;;;;6.50;6.00;;;25.20;81.00;;;;;;4964983;28;20469;-72
2023/09/08 02:54:17;;;;;;;8.77;6.20;;;25.20;81.00;;;;;;4976750;28;20447;-72
2023/09/08 02:56:43;;;;;;;6.83;6.33;;;25.20;81.00;;;;;;4977308;28;20433;-72
2023/09/08 02:59:11;;;;;;;6.70;6.00;;;25.20;81.00;;;;;;4951755;28;20680;-72
2023/09/08 03:01:40;;;;;;;8.37;6.20;;;25.20;81.10;;;;;;4973935;28;21378;-72
2023/09/08 03:04:08;;;;;;;7.80;5.50;;;25.10;81.00;;;;;;5005816;28;20816;-72
2023/09/08 03:06:36;;;;;;;7.40;6.47;;;25.10;81.00;;;;;;4993497;28;20427;-72
2023/09/08 03:09:02;;;;;;;6.37;5.77;;;25.10;81.00;;;;;;4968019;28;20456;-72
2023/09/08 03:11:29;;;;;;;6.73;6.23;;;25.10;81.00;;;;;;4953890;28;20450;-72
2023/09/08 03:13:55;;;;;;;7.83;5.77;;;25.10;81.00;;;;;;4949486;28;20489;-72
2023/09/08 03:16:23;;;;;;;7.97;7.17;;;25.10;81.00;;;;;;4938378;28;21252;-72
2023/09/08 03:18:51;;;;;;;6.50;5.90;;;25.00;80.80;;;;;;4953099;28;20218;-72
2023/09/08 03:21:19;;;;;;;6.60;6.00;;;25.00;80.80;;;;;;4969513;28;20897;-72
2023/09/08 03:23:46;;;;;;;6.57;5.90;;;25.00;80.80;;;;;;4971151;28;20969;-72
2023/09/08 03:26:13;;;;;;;6.60;6.10;;;25.00;80.80;;;;;;4975882;28;20429;-72
2023/09/08 03:28:42;;;;;;;6.57;5.97;;;25.00;80.90;;;;;;4967735;28;20429;-72
2023/09/08 03:31:08;;;;;;;7.33;6.77;;;24.90;80.80;;;;;;4955186;28;21154;-72
2023/09/08 03:33:38;;;;;;;6.80;6.23;;;25.00;80.90;;;;;;4971996;28;20534;-72
2023/09/08 03:36:06;;;;;;;6.27;5.77;;;24.90;80.90;;;;;;4989132;28;20515;-72
2023/09/08 03:38:41;;;;;;;6.90;6.33;;;24.90;80.90;;;;;;4986684;28;20476;-72
2023/09/08 03:41:07;;;;;;;7.30;6.70;;;24.90;81.00;;;;;;4972457;28;20449;-72
2023/09/08 03:43:35;;;;;;;6.93;6.43;;;24.90;81.10;;;;;;4955474;28;20437;-72
2023/09/08 03:46:03;;;;;;;8.03;6.77;;;24.90;81.10;;;;;;4986444;28;20503;-72
2023/09/08 03:48:30;;;;;;;7.30;6.60;;;24.80;81.10;;;;;;4968334;28;20455;-72
2023/09/08 03:51:01;;;;;;;6.87;6.37;;;24.80;81.10;;;;;;4969691;28;20448;-71
2023/09/08 03:53:30;;;;;;;6.73;6.13;;;24.80;81.10;;;;;;4979733;28;20433;-71
2023/09/08 03:55:56;;;;;;;6.67;6.10;;;24.80;81.10;;;;;;4979684;28;20437;-71
2023/09/08 03:58:28;;;;;;;6.57;6.07;;;24.80;81.10;;;;;;4950840;28;21308;-70
2023/09/08 04:00:58;;;;;;;7.30;6.60;;;24.70;81.00;;;;;;4972505;28;20518;-70
2023/09/08 04:03:25;;;;;;;6.40;5.80;;;24.70;80.90;;;;;;4967282;28;20470;-71
2023/09/08 04:05:56;;;;;;;6.33;5.83;;;24.70;80.90;;;;;;4979471;28;20843;-71
2023/09/08 04:08:22;;;;;;;6.17;5.67;;;24.70;81.00;;;;;;4975105;28;20460;-70
2023/09/08 04:10:48;;;;;;;7.20;6.50;;;24.70;80.90;;;;;;4967268;28;20445;-71
2023/09/08 04:13:17;;;;;;;6.73;5.93;;;24.70;81.00;;;;;;4967965;28;20409;-71
2023/09/08 04:15:45;;;;;;;9.40;6.23;;;24.70;81.00;;;;;;4975797;28;20425;-71
2023/09/08 04:18:11;;;;;;;6.60;5.90;;;24.70;81.00;;;;;;4960854;28;20453;-70
2023/09/08 04:20:37;;;;;;;7.13;6.57;;;24.60;80.90;;;;;;4981684;28;20540;-70
2023/09/08 04:23:04;;;;;;;6.10;5.60;;;24.60;80.90;;;;;;4964977;28;20444;-70
2023/09/08 04:25:32;;;;;;;6.30;5.80;;;24.60;80.90;;;;;;4969718;28;20449;-71
2023/09/08 04:28:00;;;;;;;6.83;6.03;;;24.60;80.90;;;;;;4964980;28;20445;-70
2023/09/08 04:30:29;;;;;;;6.27;5.67;;;24.50;80.80;;;;;;4969835;28;20182;-71
2023/09/08 04:32:58;;;;;;;7.20;6.70;;;24.60;81.00;;;;;;4982031;28;20425;-72
2023/09/08 04:35:23;;;;;;;6.13;5.63;;;24.50;80.80;;;;;;4950021;28;20476;-69
2023/09/08 04:37:53;;;;;;;7.40;6.70;;;24.50;80.80;;;;;;4977473;28;20559;-73
2023/09/08 04:40:22;;;;;;;6.60;6.10;;;24.50;80.90;;;;;;4976981;28;20552;-73
2023/09/08 04:42:48;;;;;;;7.03;6.20;;;24.50;80.90;;;;;;4982675;28;20715;-72
2023/09/08 04:45:14;;;;;;;8.30;5.73;;;24.50;80.90;;;;;;4972390;28;20432;-72
2023/09/08 04:47:46;;;;;;;6.90;6.30;;;24.40;80.80;;;;;;4965597;28;20729;-72
2023/09/08 04:50:13;;;;;;;7.27;6.60;;;24.40;80.80;;;;;;4958794;28;20479;-72
2023/09/08 04:52:39;;;;;;;6.70;6.10;;;24.40;80.90;;;;;;4969687;28;20468;-72
2023/09/08 04:55:13;;;;;;;8.30;6.10;;;24.40;80.90;;;;;;4967411;28;20456;-72
2023/09/08 04:57:39;;;;;;;6.67;6.17;;;24.40;80.90;;;;;;4979280;28;20471;-72
2023/09/08 05:00:08;;;;;;;5.97;5.50;;;24.40;81.00;;;;;;4976114;28;20967;-72
2023/09/08 05:02:36;;;;;;;9.87;6.67;;;24.40;80.80;;;;;;4948193;28;20473;-74
2023/09/08 05:05:06;;;;;;;7.00;6.00;;;24.30;80.70;;;;;;4948422;28;21269;-74
2023/09/08 05:07:32;;;;;;;7.33;6.70;;;24.30;80.70;;;;;;4959852;28;20520;-74
2023/09/08 05:09:58;;;;;;;8.57;6.90;;;24.30;80.80;;;;;;4983808;28;20413;-74
2023/09/08 05:12:28;;;;;;;7.03;6.10;;;24.30;80.80;;;;;;4971642;28;20433;-72
2023/09/08 05:15:00;;;;;;;6.63;6.03;;;24.30;80.80;;;;;;4963280;28;20451;-74
2023/09/08 05:17:26;;;;;;;6.37;5.80;;;24.30;80.80;;;;;;4947322;28;20556;-73
2023/09/08 05:19:53;;;;;;;6.80;6.30;;;24.20;80.80;;;;;;4982030;28;21316;-70
2023/09/08 05:22:21;;;;;;;6.83;5.77;;;24.20;80.60;;;;;;4946924;28;20848;-71
2023/09/08 05:24:47;;;;;;;7.77;5.73;;;24.20;80.80;;;;;;5019167;22;20456;-75
2023/09/08 05:27:16;;;;;;;6.63;5.80;;;24.20;80.80;;;;;;4975120;28;20465;-72
2023/09/08 05:29:42;;;;;;;6.60;6.03;;;24.20;80.80;;;;;;4965095;28;20425;-72
2023/09/08 05:32:10;;;;;;;6.20;5.70;;;24.20;80.80;;;;;;4979601;28;20444;-74
2023/09/08 05:34:38;;;;;;;6.90;6.30;;;24.20;80.90;;;;;;4974103;28;20489;-73
2023/09/08 05:37:06;;;;;;;6.27;5.77;;;24.10;80.70;;;;;;4981354;28;20409;-73
2023/09/08 05:39:32;;;;;;;6.10;5.60;;;24.10;80.80;;;;;;4961632;28;20493;-73
2023/09/08 05:42:01;;;;;;;7.27;5.70;;;24.10;80.70;;;;;;4964345;28;20490;-73
2023/09/08 05:44:27;;;;;;;6.17;5.67;;;24.10;80.70;;;;;;4980433;28;20441;-73
2023/09/08 05:46:56;;;;;;;6.03;5.53;;;24.10;80.80;;;;;;4981626;28;20397;-73
2023/09/08 05:49:23;;;;;;;6.27;5.70;;;24.10;80.80;;;;;;4964973;28;20453;-74
2023/09/08 05:51:49;;;;;;;5.77;5.27;;;24.10;80.90;;;;;;4982018;28;20533;-73
2023/09/08 05:54:19;;;;;;;6.60;5.67;;;24.10;81.00;;;;;;4980790;28;20968;-74
2023/09/08 05:56:45;;;;;;;5.77;5.37;;;24.00;80.90;;;;;;4979122;28;20448;-73
2023/09/08 05:59:14;;;;;;;5.80;5.10;;;24.00;80.90;;;;;;4948990;28;20464;-74
2023/09/08 06:01:41;;;;;;;6.20;5.50;;;24.00;80.90;;;;;;4971736;28;20682;-74
2023/09/08 06:04:12;;;;;;;6.00;5.50;;;24.00;81.00;;;;;;4981166;28;20483;-73
2023/09/08 06:06:38;;;;;;;6.13;5.57;;;24.00;81.00;;;;;;4981151;28;20444;-74
2023/09/08 06:09:07;;;;;;;6.17;5.67;;;24.00;81.10;;;;;;4982053;28;20491;-74
2023/09/08 06:11:34;;;;;;;6.60;6.00;;;23.90;81.00;;;;;;4964411;28;21008;-73
2023/09/08 06:14:00;;;;;;;6.87;6.03;;;23.90;81.10;;;;;;4965171;28;20436;-77
2023/09/08 06:16:32;;;;;;;5.90;5.40;;;23.90;81.10;;;;;;4965391;28;20449;-75
2023/09/08 06:19:03;;;;;;;5.90;5.30;;;23.90;81.10;;;;;;4966363;28;20881;-74
2023/09/08 06:21:29;;;;;;;6.13;5.53;;;23.90;81.10;;;;;;4949959;28;20760;-73
2023/09/08 06:23:58;;;;;;;6.03;5.43;;;23.90;81.20;;;;;;4965734;28;20432;-76
2023/09/08 06:26:29;;;;;;;7.47;6.77;;;23.90;81.30;;;;;;4983306;28;20485;-72
2023/09/08 06:28:56;;;;;;;6.40;5.80;;;23.90;81.40;;;;;;4997893;28;20562;-75
2023/09/08 06:31:24;;;;;;;6.10;5.60;;;23.90;81.60;;;;;;4985896;28;20441;-73
2023/09/08 06:33:54;;;;;;;6.97;6.27;;;23.90;81.60;;;;;;4952553;28;20197;-76
2023/09/08 06:36:21;;;;;;;6.90;6.20;;;23.90;81.70;;;;;;4967176;28;20527;-75
2023/09/08 06:38:47;;;;;;;6.80;6.13;;;23.80;81.70;;;;;;4968310;28;20469;-75
2023/09/08 06:41:17;;;;;;;5.67;5.20;;;23.90;81.90;;;;;;4986112;28;20471;-74
2023/09/08 06:43:49;;;;;;;7.00;6.30;;;23.90;82.00;;;;;;4985229;28;20563;-77
2023/09/08 06:46:20;;;;;;;6.27;5.67;;;23.80;82.10;;;;;;4954203;28;20859;-77
2023/09/08 06:48:47;;;;;;;6.33;5.73;;;23.80;82.20;;;;;;4997484;28;21357;-75
2023/09/08 06:51:18;;;;;;;6.40;5.83;;;23.80;82.30;;;;;;5000625;28;20440;-74
2023/09/08 06:53:44;;;;;;;5.97;5.37;;;23.80;82.50;;;;;;4967878;28;20943;-74
2023/09/08 06:56:13;;;;;;;6.77;6.17;;;23.80;82.50;;;;;;4973812;28;20594;-74
2023/09/08 06:58:39;;;;;;;6.30;5.80;;;23.80;82.60;;;;;;4968100;28;20539;-74
2023/09/08 07:01:10;;;;;;;6.00;5.50;;;23.80;82.70;;;;;;4968085;28;21512;-75
2023/09/08 07:03:38;;;;;;;6.93;6.17;;;23.80;82.90;;;;;;4967886;28;20417;-74
2023/09/08 07:06:10;;;;;;;6.23;5.73;;;23.80;83.00;;;;;;4967778;28;20432;-74
2023/09/08 07:08:37;;;;;;;6.60;6.00;;;23.80;83.10;;;;;;4993310;28;20503;-73
2023/09/08 07:11:03;;;;;;;6.90;6.20;;;23.80;83.20;;;;;;4968530;28;20504;-71
2023/09/08 07:13:34;;;;;;;6.40;5.83;;;23.80;83.30;;;;;;4967823;28;20437;-71
2023/09/08 07:16:01;;;;;;;6.13;5.53;;;23.80;83.30;;;;;;4952126;28;20960;-72
2023/09/08 07:18:27;;;;;;;5.80;5.27;;;23.80;83.40;;;;;;4983909;28;20496;-72
2023/09/08 07:20:55;;;;;;;6.60;6.10;;;23.80;83.40;;;;;;4948970;28;21317;-71
2023/09/08 07:23:24;;;;;;;6.47;5.87;;;23.80;83.50;;;;;;4968483;28;20453;-72
2023/09/08 07:25:55;;;;;;;6.53;5.93;;;23.80;83.50;;;;;;4985160;28;20863;-71
2023/09/08 07:28:27;;;;;;;6.30;5.70;;;23.80;83.60;;;;;;4967021;28;20493;-70
2023/09/08 07:31:04;;;;;;;6.40;5.80;;;23.80;83.70;;;;;;4962452;28;20437;-71
2023/09/08 07:33:32;;;;;;;7.20;6.60;;;23.80;83.70;;;;;;4984470;28;20436;-70
2023/09/08 07:36:07;;;;;;;6.70;6.00;;;23.80;83.70;;;;;;4982756;28;20437;-72
2023/09/08 07:38:37;;;;;;;6.23;5.70;;;23.80;83.80;;;;;;4964818;28;20492;-71
2023/09/08 07:41:03;;;;;;;7.00;5.70;;;23.80;83.70;;;;;;4967980;28;20700;-71
2023/09/08 07:43:32;;;;;;;6.57;5.97;;;23.80;83.80;;;;;;4982867;28;20440;-71
2023/09/08 07:46:03;;;;;;;7.30;6.60;;;23.80;83.90;;;;;;4965257;28;20528;-73
2023/09/08 07:48:31;;;;;;;7.20;6.60;;;23.80;83.80;;;;;;4983863;28;20469;-71
2023/09/08 07:50:59;;;;;;;6.23;5.80;;;23.80;83.80;;;;;;4977585;28;20464;-72
2023/09/08 07:56:17;;;;;;;7.00;6.07;;;23.80;83.70;;;;;;5016091;28;20474;-70
2023/09/08 07:58:43;;;;;;;6.90;6.30;;;23.80;83.70;;;;;;5055903;28;20441;-70
2023/09/08 08:01:09;;;;;;;7.50;6.90;;;23.80;83.70;;;;;;5062995;28;20463;-74
2023/09/08 08:03:37;;;;;;;10.30;6.57;;;23.80;83.70;;;;;;5047328;28;20864;-75
2023/09/08 08:06:06;;;;;;;6.40;5.80;;;23.80;83.70;;;;;;5065139;28;20398;-73
2023/09/08 08:08:38;;;;;;;7.60;6.90;;;23.80;83.70;;;;;;5047082;28;20442;-73
2023/09/08 08:11:15;;;;;;;6.90;6.30;;;23.80;83.70;;;;;;5047223;28;20436;-72
2023/09/08 08:13:41;;;;;;;6.87;6.27;;;23.80;83.70;;;;;;5043447;28;20473;-73
2023/09/08 08:16:07;;;;;;;7.07;6.57;;;23.80;83.60;;;;;;5012660;28;20427;-73
2023/09/08 08:18:33;;;;;;;6.60;6.10;;;23.80;83.60;;;;;;5045538;28;21127;-73
2023/09/08 08:21:00;;;;;;;7.20;6.50;;;23.80;83.60;;;;;;5026116;28;20421;-73
2023/09/08 08:23:26;;;;;;;6.93;6.23;;;23.80;83.60;;;;;;5025180;28;20594;-75
2023/09/08 08:25:52;;;;;;;7.77;7.17;;;23.90;83.70;;;;;;5063561;28;20478;-74
2023/09/08 08:28:21;;;;;;;7.27;6.67;;;23.80;83.50;;;;;;5056918;28;20495;-74
2023/09/08 08:30:52;;;;;;;6.77;5.90;;;23.80;83.50;;;;;;5022599;28;20462;-74
2023/09/08 08:33:18;;;;;;;7.07;6.57;;;23.80;83.50;;;;;;5058945;28;20433;-75
2023/09/08 08:35:51;;;;;;;7.10;6.50;;;23.90;83.50;;;;;;5045711;28;20418;-74
2023/09/08 08:38:17;;;;;;;8.30;7.60;;;23.90;83.60;;;;;;5046681;28;20444;-74
2023/09/08 08:40:45;;;;;;;7.47;6.10;;;23.90;83.80;;;;;;5029096;28;20409;-72
2023/09/08 08:43:11;;;;;;;7.80;6.40;;;23.90;83.90;;;;;;5029634;28;20424;-73
2023/09/08 08:45:41;;;;;;;6.97;6.37;;;23.90;83.90;;;;;;5047485;28;20987;-74
2023/09/08 08:48:10;;;;;;;6.97;6.40;;;23.90;83.80;;;;;;5057975;28;20476;-74
2023/09/08 08:50:38;;;;;;;7.57;6.87;;;23.90;83.80;;;;;;5045052;28;20877;-74
2023/09/08 08:53:05;;;;;;;7.50;6.90;;;23.90;83.80;;;;;;5044126;28;20517;-74
2023/09/08 08:55:33;;;;;;;7.90;7.20;;;24.00;84.00;;;;;;5038063;28;20631;-73
2023/09/08 08:58:08;;;;;;;7.40;6.70;;;24.00;84.10;;;;;;5042671;28;20446;-74
2023/09/08 09:00:36;;;;;;;5.97;5.53;;;24.00;84.20;;;;;;5013630;28;20441;-74
2023/09/08 09:03:05;;;;;;;7.07;6.47;;;24.00;84.30;;;;;;5025943;28;20469;-74
2023/09/08 09:05:36;;;;;;;7.13;6.43;;;24.00;84.20;;;;;;5024829;28;20461;-74
2023/09/08 09:08:04;;;;;;;7.00;6.50;;;24.10;84.40;;;;;;5039932;28;20457;-74
2023/09/08 09:10:35;;;;;;;7.20;6.60;;;24.10;84.30;;;;;;5037096;28;21416;-74
2023/09/08 09:13:03;;;;;;;7.37;6.73;;;24.10;84.20;;;;;;5019596;28;20477;-74
2023/09/08 09:15:32;;;;;;;7.47;6.97;;;24.10;84.40;;;;;;5017230;28;20947;-74
2023/09/08 09:18:08;;;;;;;6.83;6.33;;;24.20;84.50;;;;;;5055798;28;20561;-74
2023/09/08 09:20:34;;;;;;;6.93;6.33;;;24.20;84.40;;;;;;5043937;28;20465;-73
2023/09/08 09:23:03;;;;;;;7.17;6.60;;;24.20;84.40;;;;;;5029982;28;20958;-73
2023/09/08 09:25:31;;;;;;;7.47;6.90;;;24.20;84.50;;;;;;5069527;28;20421;-73
2023/09/08 09:28:01;;;;;;;6.57;6.07;;;24.30;84.60;;;;;;5042512;28;20457;-73
2023/09/08 09:30:48;;;;;;;9.43;7.03;;;24.30;84.60;;;;;;5024447;28;20465;-73
2023/09/08 09:33:14;;;;;;;7.37;6.77;;;24.40;84.60;;;;;;5014391;28;20442;-76
2023/09/08 09:35:50;;;;;;;7.30;6.70;;;24.40;84.70;;;;;;5006547;28;20446;-73
2023/09/08 09:38:19;;;;;;;7.97;7.33;;;24.40;84.60;;;;;;5042499;28;20461;-73
2023/09/08 09:40:46;;;;;;;7.90;7.23;;;24.40;84.60;;;;;;5035477;28;20533;-73
2023/09/08 09:43:14;;;;;;;7.80;7.10;;;24.50;84.60;;;;;;5023015;28;20410;-73
2023/09/08 09:45:41;;;;;;;8.30;7.60;;;24.50;84.60;;;;;;5023190;28;20946;-73
2023/09/08 09:48:10;;;;;;;7.40;6.80;;;24.50;84.60;;;;;;5022927;28;20454;-73
2023/09/08 09:50:41;;;;;;;7.30;6.70;;;24.50;84.50;;;;;;5053382;28;21012;-74
2023/09/08 09:53:10;;;;;;;7.10;6.50;;;24.60;84.50;;;;;;5024310;28;20802;-73
2023/09/08 09:55:44;;;;;;;6.83;6.33;;;24.60;84.60;;;;;;5040715;28;20458;-73
2023/09/08 09:58:11;;;;;;;7.07;6.50;;;24.70;84.70;;;;;;5040111;28;20431;-73
2023/09/08 10:00:38;;;;;;;7.63;6.90;;;24.70;84.60;;;;;;5031702;28;20448;-73
2023/09/08 10:03:07;;;;;;;7.47;6.87;;;24.70;84.70;;;;;;5022600;28;20921;-73
2023/09/08 10:05:33;;;;;;;7.20;6.63;;;24.70;84.60;;;;;;5030799;28;20496;-73
2023/09/08 10:08:03;;;;;;;7.30;6.70;;;24.80;84.70;;;;;;5029145;28;20477;-73
2023/09/08 10:10:31;;;;;;;7.97;7.17;;;24.80;84.70;;;;;;5029669;28;20405;-73
2023/09/08 10:13:03;;;;;;;8.10;7.37;;;24.80;85.40;;;;;;5029023;28;20519;-73
2023/09/08 10:15:33;;;;;;;7.93;7.30;;;24.90;84.70;;;;;;5031969;28;20457;-73
2023/09/08 10:18:04;;;;;;;8.20;7.60;;;24.90;84.60;;;;;;5046418;28;20518;-73
2023/09/08 10:20:34;;;;;;;7.53;6.83;;;24.90;84.60;;;;;;5044327;28;20422;-73
2023/09/08 10:23:28;;;;;;;8.23;7.57;;;25.00;84.60;;;;;;5009930;28;20469;-73
2023/09/08 10:25:59;;;;;;;7.97;7.17;;;25.00;84.60;;;;;;5044346;28;20444;-73
2023/09/08 10:28:31;;;;;;;8.20;7.50;;;25.00;84.60;;;;;;5044358;28;21005;-74
2023/09/08 10:30:57;;;;;;;7.43;6.93;;;25.10;84.70;;;;;;5009469;28;20437;-73
2023/09/08 10:33:25;;;;;;;8.57;7.77;;;25.10;84.70;;;;;;5009943;28;20971;-74
2023/09/08 10:35:56;;;;;;;7.50;6.90;;;25.10;84.60;;;;;;5042722;28;20417;-73
2023/09/08 10:38:27;;;;;;;7.23;6.37;;;25.20;84.70;;;;;;5025887;28;20468;-74
2023/09/08 10:41:13;;;;;;;7.00;6.37;;;25.20;84.70;;;;;;5026741;28;20445;-74
2023/09/08 10:43:59;;;;;;;7.23;6.63;;;25.20;84.60;;;;;;5028718;28;20421;-73
2023/09/08 10:46:30;;;;;;;7.67;7.07;;;25.20;84.60;;;;;;5026509;28;20413;-73
2023/09/08 10:49:09;;;;;;;7.70;7.10;;;25.20;84.60;;;;;;5026121;28;20992;-73
2023/09/08 10:51:39;;;;;;;7.20;6.70;;;25.30;84.70;;;;;;5044808;28;20444;-74
2023/09/08 10:54:10;;;;;;;8.13;7.43;;;25.40;84.70;;;;;;5011553;28;20947;-74
2023/09/08 10:56:55;;;;;;;7.80;7.10;;;25.40;84.70;;;;;;5045576;28;20441;-74
2023/09/08 10:59:27;;;;;;;7.30;6.70;;;25.40;84.70;;;;;;5045582;28;20889;-73
2023/09/08 11:01:55;;;;;;;7.60;7.00;;;25.40;84.60;;;;;;5045019;28;20561;-74
2023/09/08 11:04:23;;;;;;;7.57;6.97;;;25.50;85.20;;;;;;5044828;28;20460;-74
2023/09/08 11:06:49;;;;;;;7.57;6.87;;;25.50;84.70;;;;;;5063463;28;21262;-74
2023/09/08 11:09:16;;;;;;;7.83;7.03;;;25.60;84.60;;;;;;5018103;28;20513;-73
2023/09/08 11:11:45;;;;;;;7.90;7.27;;;25.60;84.60;;;;;;5040721;28;20429;-73
2023/09/08 11:14:16;;;;;;;7.80;7.00;;;25.60;84.60;;;;;;5062398;28;20446;-74
2023/09/08 11:16:43;;;;;;;7.80;7.20;;;25.70;84.60;;;;;;5044853;28;20446;-74
2023/09/08 11:19:12;;;;;;;8.17;7.47;;;25.70;84.40;;;;;;5042754;28;20460;-74
2023/09/08 11:21:38;;;;;;;7.30;6.70;;;25.70;84.40;;;;;;5028078;28;20833;-74
2023/09/08 11:24:06;;;;;;;7.87;7.17;;;25.80;84.30;;;;;;5044158;28;20394;-74
2023/09/08 11:26:35;;;;;;;8.10;7.50;;;25.80;84.20;;;;;;5074339;23;20540;-71
2023/09/08 11:29:04;;;;;;;8.10;7.40;;;25.80;84.20;;;;;;4988992;28;20972;-73
2023/09/08 11:31:32;;;;;;;7.93;7.23;;;25.90;84.20;;;;;;4990098;28;20422;-73
2023/09/08 11:33:59;;;;;;;7.77;7.07;;;25.90;84.10;;;;;;4972383;28;20451;-72
2023/09/08 11:36:25;;;;;;;8.37;7.77;;;25.90;84.10;;;;;;4988720;28;20457;-73
2023/09/08 11:38:52;;;;;;;8.10;7.40;;;26.00;84.10;;;;;;5022979;28;20439;-72
2023/09/08 11:41:23;;;;;;;7.73;7.00;;;26.00;84.20;;;;;;5004924;28;20193;-73
2023/09/08 11:43:49;;;;;;;8.13;7.43;;;26.00;84.00;;;;;;4973706;28;20440;-72
2023/09/08 11:46:17;;;;;;;7.90;7.20;;;26.10;84.00;;;;;;5003178;28;20909;-76
2023/09/08 11:48:46;;;;;;;7.43;6.93;;;26.10;84.00;;;;;;4987965;28;20440;-71
2023/09/08 11:51:14;;;;;;;7.40;6.80;;;26.10;83.90;;;;;;5003722;28;20460;-72
2023/09/08 11:53:42;;;;;;;8.60;8.00;;;26.20;83.80;;;;;;4971003;28;20973;-72
2023/09/08 11:56:08;;;;;;;9.53;7.30;;;26.20;83.80;;;;;;5002782;28;20413;-72
2023/09/08 11:58:37;;;;;;;9.13;8.33;;;26.20;83.80;;;;;;5004070;28;20837;-73
2023/09/08 12:01:04;;;;;;;8.20;7.53;;;26.20;83.70;;;;;;5003711;28;20980;-72
2023/09/08 12:03:30;;;;;;;7.60;7.00;;;26.30;83.70;;;;;;4969889;28;20487;-73
2023/09/08 12:06:00;;;;;;;7.13;6.53;;;26.30;83.60;;;;;;5003404;28;20423;-72
2023/09/08 12:08:27;;;;;;;7.90;7.30;;;26.40;83.70;;;;;;4985949;28;20258;-72
2023/09/08 12:10:54;;;;;;;8.00;7.30;;;26.40;83.70;;;;;;4986170;28;20431;-72
2023/09/08 12:13:23;;;;;;;7.70;7.00;;;26.40;83.60;;;;;;5003316;28;21319;-72
2023/09/08 12:15:52;;;;;;;7.87;7.27;;;26.40;83.70;;;;;;4986114;28;20877;-76
2023/09/08 12:18:18;;;;;;;8.17;7.23;;;26.40;83.60;;;;;;4972803;28;20448;-71
2023/09/08 12:20:45;;;;;;;11.50;7.80;;;26.50;83.80;;;;;;4991535;28;20426;-72
2023/09/08 12:23:19;;;;;;;8.03;7.33;;;26.50;83.80;;;;;;5004970;28;20524;-73
2023/09/08 12:25:47;;;;;;;9.00;8.20;;;26.60;83.80;;;;;;4990104;28;20436;-70
2023/09/08 12:28:13;;;;;;;8.00;7.30;;;26.60;83.60;;;;;;4984775;28;20518;-73
2023/09/08 12:30:39;;;;;;;7.87;7.17;;;26.60;83.40;;;;;;5006771;28;20463;-76
2023/09/08 12:33:08;;;;;;;8.10;7.50;;;26.70;83.30;;;;;;5018048;28;20806;-74
2023/09/08 12:35:34;;;;;;;8.80;8.00;;;26.70;83.20;;;;;;5003222;28;20445;-75
2023/09/08 12:38:03;;;;;;;8.03;7.33;;;26.70;83.10;;;;;;5001505;28;20452;-73
2023/09/08 12:40:31;;;;;;;7.90;7.20;;;26.70;83.00;;;;;;5023334;28;20415;-74
2023/09/08 12:43:00;;;;;;;8.30;7.60;;;26.80;83.10;;;;;;5023336;28;20478;-72
2023/09/08 12:45:27;;;;;;;8.80;7.53;;;26.80;83.00;;;;;;5005101;28;20869;-72
2023/09/08 12:48:02;;;;;;;8.20;7.60;;;26.80;82.90;;;;;;5021247;28;20535;-73
2023/09/08 12:50:29;;;;;;;8.53;7.83;;;26.90;82.90;;;;;;5020033;28;20448;-70
2023/09/08 12:52:57;;;;;;;8.80;8.00;;;26.90;82.90;;;;;;5015720;28;20521;-71
2023/09/08 12:55:23;;;;;;;8.63;7.83;;;26.90;82.70;;;;;;5023161;28;20407;-70
2023/09/08 12:57:54;;;;;;;7.97;7.30;;;26.90;82.70;;;;;;4972082;28;20471;-72